Time;durP1;ratioP1;P1;durP2;ratioP2;P2;SDS_P1;SDS_P2;PMS_P1;PMS_P2;Temp;Humidity;BMP_temperature;BMP_pressure;BME280_temperature;BME280_humidity;BME280_pressure;Samples;Min_cycle;Max_cycle;Signal;HPM_P1;HPM_P2
2021/04/01 00:00:23;;;;;;;19.92;17.63;;;8.00;99.90;;;;;;5023691;28;20824;-81
2021/04/01 00:02:51;;;;;;;21.85;17.02;;;8.00;99.90;;;;;;5012457;28;20515;-81
2021/04/01 00:05:17;;;;;;;24.77;20.88;;;8.00;99.90;;;;;;5012636;28;20385;-80
2021/04/01 00:07:43;;;;;;;19.13;15.40;;;8.00;99.90;;;;;;5012533;28;20869;-81
2021/04/01 00:10:15;;;;;;;34.05;26.15;;;8.00;99.90;;;;;;5011336;28;20396;-81
2021/04/01 00:12:41;;;;;;;38.08;29.65;;;8.00;99.90;;;;;;5010903;28;20483;-81
2021/04/01 00:15:09;;;;;;;39.30;30.03;;;7.90;99.90;;;;;;5010821;28;20477;-80
2021/04/01 00:17:39;;;;;;;69.68;51.58;;;8.00;99.90;;;;;;5010756;28;20406;-81
2021/04/01 00:20:07;;;;;;;121.95;91.07;;;7.90;99.90;;;;;;5011065;28;20730;-80
2021/04/01 00:22:32;;;;;;;108.40;80.53;;;7.90;99.90;;;;;;5011096;28;20411;-81
2021/04/01 00:24:58;;;;;;;71.28;53.55;;;7.90;99.90;;;;;;5012170;28;20405;-81
2021/04/01 00:27:23;;;;;;;58.00;43.42;;;7.90;99.90;;;;;;5011570;28;20423;-81
2021/04/01 00:29:49;;;;;;;78.63;56.10;;;7.80;99.90;;;;;;5012778;28;20450;-81
2021/04/01 00:32:15;;;;;;;65.43;48.40;;;7.80;99.90;;;;;;5011489;28;20482;-81
2021/04/01 00:34:40;;;;;;;61.83;45.88;;;7.80;99.90;;;;;;5012758;28;20429;-80
2021/04/01 00:37:06;;;;;;;61.80;46.00;;;7.80;99.90;;;;;;5012734;28;20867;-81
2021/04/01 00:39:32;;;;;;;63.80;48.38;;;7.80;99.90;;;;;;5012715;28;20393;-81
2021/04/01 00:41:57;;;;;;;61.37;45.83;;;7.70;99.90;;;;;;5011544;28;20403;-81
2021/04/01 00:44:23;;;;;;;57.53;44.43;;;7.70;99.90;;;;;;5012564;28;20804;-81
2021/04/01 00:46:49;;;;;;;59.97;45.67;;;7.70;99.90;;;;;;5012718;28;20410;-81
2021/04/01 00:49:15;;;;;;;58.25;44.67;;;7.60;99.90;;;;;;5012348;28;20390;-81
2021/04/01 00:51:41;;;;;;;56.60;43.20;;;7.60;99.90;;;;;;5012468;28;20382;-80
2021/04/01 00:54:06;;;;;;;51.17;39.65;;;7.60;99.90;;;;;;5012462;28;20375;-80
2021/04/01 00:56:32;;;;;;;51.03;37.88;;;7.60;99.90;;;;;;5012396;28;20456;-81
2021/04/01 00:58:58;;;;;;;51.22;38.95;;;7.50;99.90;;;;;;5012091;28;20409;-81
2021/04/01 01:01:33;;;;;;;55.42;40.30;;;7.50;99.90;;;;;;5011051;28;20411;-81
2021/04/01 01:03:59;;;;;;;52.10;39.58;;;7.50;99.90;;;;;;5012361;28;20371;-81
2021/04/01 01:06:25;;;;;;;46.90;38.47;;;7.50;99.90;;;;;;5012231;28;20398;-81
2021/04/01 01:08:51;;;;;;;44.72;34.05;;;7.40;99.90;;;;;;5011856;28;20815;-81
2021/04/01 01:11:16;;;;;;;45.40;33.38;;;7.40;99.90;;;;;;5010915;28;20441;-81
2021/04/01 01:13:42;;;;;;;41.53;32.42;;;7.40;99.90;;;;;;5012005;28;20390;-81
2021/04/01 01:16:08;;;;;;;44.23;33.47;;;7.40;99.90;;;;;;5012081;28;20399;-81
2021/04/01 01:18:33;;;;;;;45.57;32.43;;;7.30;99.90;;;;;;5010823;28;20387;-80
2021/04/01 01:21:00;;;;;;;44.50;34.63;;;7.30;99.90;;;;;;5010318;28;20936;-81
2021/04/01 01:23:30;;;;;;;45.35;33.08;;;7.30;99.90;;;;;;5010500;28;20904;-81
2021/04/01 01:25:57;;;;;;;41.45;32.55;;;7.30;99.90;;;;;;5011469;28;20379;-81
2021/04/01 01:28:23;;;;;;;37.28;29.83;;;7.30;99.90;;;;;;5010126;28;20761;-81
2021/04/01 01:30:50;;;;;;;39.90;30.00;;;7.30;99.90;;;;;;5011839;28;20730;-81
2021/04/01 01:33:19;;;;;;;41.33;32.05;;;7.30;99.90;;;;;;5011525;28;20375;-81
2021/04/01 01:35:47;;;;;;;39.72;31.15;;;7.30;99.90;;;;;;5011596;28;20899;-81
2021/04/01 01:38:12;;;;;;;38.83;29.45;;;7.30;99.90;;;;;;5009988;28;20753;-81
2021/04/01 01:40:38;;;;;;;32.13;26.40;;;7.30;99.90;;;;;;5011542;28;20461;-81
2021/04/01 01:43:09;;;;;;;35.08;27.95;;;7.30;99.90;;;;;;5011373;28;20765;-81
2021/04/01 01:45:35;;;;;;;35.05;28.63;;;7.30;99.90;;;;;;5010266;28;20379;-81
2021/04/01 01:48:01;;;;;;;34.30;28.98;;;7.20;99.90;;;;;;5010960;28;20375;-81
2021/04/01 01:50:29;;;;;;;36.23;28.23;;;7.30;99.90;;;;;;5011372;28;20880;-81
2021/04/01 01:52:56;;;;;;;37.00;28.17;;;7.30;99.90;;;;;;5011215;28;20375;-81
2021/04/01 01:55:22;;;;;;;33.03;27.13;;;7.20;99.90;;;;;;5009807;28;20390;-81
2021/04/01 01:57:48;;;;;;;33.42;25.85;;;7.30;99.90;;;;;;5010867;28;20379;-81
2021/04/01 02:00:42;;;;;;;27.70;23.98;;;7.30;99.90;;;;;;5009743;28;20382;-81
2021/04/01 02:03:09;;;;;;;33.45;25.13;;;7.40;99.90;;;;;;5010248;28;20478;-81
2021/04/01 02:05:35;;;;;;;33.63;26.42;;;;;;;;;;5009615;28;20707;-80
2021/04/01 02:08:01;;;;;;;35.35;27.20;;;;;;;;;;5010731;28;20838;-80
2021/04/01 02:10:27;;;;;;;34.85;28.05;;;;;;;;;;5011024;28;20410;-80
2021/04/01 02:12:54;;;;;;;36.47;25.90;;;;;;;;;;5009720;28;20363;-80
2021/04/01 02:15:23;;;;;;;28.30;23.77;;;;;;;;;;5011130;28;20462;-80
2021/04/01 02:17:49;;;;;;;28.50;22.70;;;;;;;;;;5010682;28;20914;-80
2021/04/01 02:20:15;;;;;;;25.80;20.95;;;;;;;;;;5011016;28;20425;-80
2021/04/01 02:22:41;;;;;;;22.98;18.90;;;;;;;;;;5010660;28;20877;-80
2021/04/01 02:25:07;;;;;;;23.65;19.20;;;;;;;;;;5011082;28;20363;-81
2021/04/01 02:27:34;;;;;;;23.85;20.45;;;;;;;;;;5009307;28;20368;-80
2021/04/01 02:30:00;;;;;;;20.45;17.73;;;;;;;;;;5010932;28;20374;-80
2021/04/01 02:32:26;;;;;;;23.77;19.30;;;;;;;;;;5010766;28;20374;-81
2021/04/01 02:34:52;;;;;;;21.20;17.52;;;;;;;;;;5010552;28;20371;-81
2021/04/01 02:37:18;;;;;;;20.70;16.27;;;;;;;;;;5010503;28;20852;-81
2021/04/01 02:39:45;;;;;;;24.40;16.83;;;;;;;;;;5009467;28;20465;-81
2021/04/01 02:42:11;;;;;;;19.85;15.75;;;;;;;;;;5010537;28;20777;-80
2021/04/01 02:44:37;;;;;;;18.83;14.73;;;;;;;;;;5009621;28;20367;-80
2021/04/01 02:47:04;;;;;;;15.25;13.65;;;;;;;;;;5009227;28;20455;-81
2021/04/01 02:49:30;;;;;;;15.50;13.83;;;;;;;;;;5010857;28;20375;-80
2021/04/01 02:51:56;;;;;;;14.70;13.13;;;;;;;;;;5010800;28;20887;-81
2021/04/01 02:54:22;;;;;;;15.43;13.65;;;;;;;;;;5010853;28;20430;-81
2021/04/01 02:56:48;;;;;;;15.60;13.90;;;;;;;;;;5010889;28;20458;-81
2021/04/01 02:59:14;;;;;;;16.48;14.05;;;;;;;;;;5008939;28;20790;-80
2021/04/01 03:01:40;;;;;;;15.05;13.45;;;;;;;;;;5010799;28;20478;-81
2021/04/01 03:04:09;;;;;;;18.63;15.95;;;;;;;;;;5010493;28;20736;-80
2021/04/01 03:06:35;;;;;;;20.23;17.65;;;;;;;;;;5008932;28;20470;-80
2021/04/01 03:09:01;;;;;;;20.75;16.70;;;;;;;;;;5008530;28;20371;-80
2021/04/01 03:11:28;;;;;;;19.65;16.52;;;;;;;;;;5010283;28;20458;-80
2021/04/01 03:13:53;;;;;;;18.30;15.60;;;;;;;;;;5009077;28;20406;-81
2021/04/01 03:16:19;;;;;;;22.02;17.42;;;;;;;;;;5008963;28;20888;-81
2021/04/01 03:18:45;;;;;;;19.05;16.33;;;;;;;;;;5008634;28;20415;-80
2021/04/01 03:21:11;;;;;;;17.97;16.07;;;;;;;;;;5010229;28;20455;-81
2021/04/01 03:23:37;;;;;;;17.10;15.30;;;;;;;;;;5009033;28;20793;-81
2021/04/01 03:26:03;;;;;;;25.40;16.73;;;;;;;;;;5010089;28;20382;-80
2021/04/01 03:28:29;;;;;;;25.00;17.63;;;;;;;;;;5009965;28;20446;-81
2021/04/01 03:31:01;;;;;;;26.45;18.23;;;;;;;;;;5010244;28;20363;-80
2021/04/01 03:33:31;;;;;;;22.42;17.77;;;;;;;;;;5010858;28;20425;-80
2021/04/01 03:35:57;;;;;;;30.27;18.92;;;;;;;;;;5013883;28;20371;-80
2021/04/01 03:38:24;;;;;;;20.60;17.48;;;;;;;;;;5013409;28;20395;-81
2021/04/01 03:40:52;;;;;;;20.75;16.05;;;;;;;;;;5014015;28;20374;-80
2021/04/01 03:43:19;;;;;;;29.80;18.38;;;;;;;;;;5014431;28;20406;-80
2021/04/01 03:45:45;;;;;;;21.25;17.42;;;;;;;;;;5013773;28;20379;-80
2021/04/01 03:48:11;;;;;;;24.77;16.40;;;;;;;;;;5013347;28;20451;-81
2021/04/01 03:50:37;;;;;;;22.80;16.70;;;;;;;;;;5013805;28;20367;-81
2021/04/01 03:53:03;;;;;;;21.63;17.55;;;;;;;;;;5012237;28;20383;-80
2021/04/01 04:00:46;;;;;;;19.57;15.83;;;;;;;;;;5013972;28;20453;-80
2021/04/01 04:11:07;;;;;;;24.08;18.27;;;;;;;;;;5013782;28;20366;-80
2021/04/01 04:13:58;;;;;;;24.17;18.77;;;;;;;;;;5013393;28;20367;-80
2021/04/01 04:16:20;;;;;;;23.45;16.65;;;;;;;;;;5013115;28;20371;-80
2021/04/01 04:18:46;;;;;;;26.63;17.27;;;;;;;;;;5012861;28;20440;-81
2021/04/01 04:21:12;;;;;;;21.65;16.60;;;;;;;;;;5011880;28;20402;-80
2021/04/01 04:23:42;;;;;;;23.73;16.97;;;;;;;;;;5013275;28;20375;-80
2021/04/01 04:26:09;;;;;;;23.05;17.83;;;;;;;;;;5013150;28;20371;-81
2021/04/01 04:28:36;;;;;;;24.27;18.37;;;;;;;;;;5011757;28;20371;-81
2021/04/01 04:31:03;;;;;;;20.63;16.25;;;;;;;;;;5013150;28;20363;-81
2021/04/01 04:33:29;;;;;;;17.67;15.77;;;;;;;;;;5013031;28;20458;-80
2021/04/01 04:35:55;;;;;;;23.15;17.63;;;;;;;;;;5013265;28;20424;-80
2021/04/01 04:38:21;;;;;;;19.67;16.25;;;;;;;;;;5011368;28;20371;-81
2021/04/01 04:40:49;;;;;;;24.70;17.85;;;;;;;;;;5012921;28;20363;-81
2021/04/01 04:43:15;;;;;;;19.90;16.35;;;;;;;;;;5011714;28;20900;-81
2021/04/01 04:45:41;;;;;;;20.80;16.52;;;;;;;;;;5012672;28;20371;-81
2021/04/01 04:48:07;;;;;;;16.90;15.20;;;;;;;;;;5016835;28;20390;-81
2021/04/01 04:50:33;;;;;;;17.83;15.23;;;;;;;;;;5020890;28;20451;-81
2021/04/01 04:52:59;;;;;;;18.15;15.07;;;;;;;;;;5021246;28;20872;-81
2021/04/01 04:55:25;;;;;;;20.23;15.25;;;;;;;;;;5016345;28;20391;-81
2021/04/01 05:06:03;;;;;;;23.37;17.20;;;;;;;;;;5012357;28;20486;-81
2021/04/01 05:08:29;;;;;;;30.95;18.05;;;;;;;;;;5012205;28;20366;-81
2021/04/01 05:10:55;;;;;;;21.90;16.27;;;;;;;;;;5012296;28;20733;-81
2021/04/01 05:13:21;;;;;;;25.83;16.98;;;;;;;;;;5012100;28;20466;-80
2021/04/01 05:15:48;;;;;;;31.97;19.40;;;;;;;;;;5012501;28;20454;-81
2021/04/01 05:20:42;;;;;;;29.80;18.27;;;;;;;;;;5012378;28;20371;-81
2021/04/01 05:23:23;;;;;;;24.50;17.77;;;;;;;;;;5010984;28;20866;-80
2021/04/01 05:25:50;;;;;;;29.92;16.75;;;;;;;;;;5012119;28;20864;-80
2021/04/01 05:30:45;;;;;;;25.88;17.48;;;;;;;;;;5012472;28;20410;-81
2021/04/01 05:33:12;;;;;;;18.95;15.20;;;;;;;;;;5012526;28;20391;-81
2021/04/01 05:35:39;;;;;;;29.63;17.75;;;;;;;;;;5011312;28;20375;-81
2021/04/01 05:38:05;;;;;;;28.63;18.13;;;;;;;;;;5010808;28;20470;-81
2021/04/01 05:40:32;;;;;;;19.70;16.02;;;;;;;;;;5012018;28;20379;-81
2021/04/01 05:42:58;;;;;;;20.60;14.75;;;;;;;;;;5011183;28;20551;-81
2021/04/01 05:45:37;;;;;;;24.17;17.08;;;;;;;;;;5010472;28;20374;-81
2021/04/01 05:48:04;;;;;;;162.30;28.02;;;;;;;;;;5009592;28;20367;-81
2021/04/01 05:53:59;;;;;;;40.70;19.33;;;;;;;;;;5011683;28;20361;-81
2021/04/01 05:56:42;;;;;;;27.10;17.40;;;;;;;;;;5010776;28;20379;-81
2021/04/01 06:04:32;;;;;;;21.67;16.13;;;;;;;;;;5011722;28;20377;-81
2021/04/01 06:07:02;;;;;;;23.93;16.53;;;;;;;;;;5010965;28;20379;-81
2021/04/01 06:09:31;;;;;;;22.95;16.98;;;;;;;;;;5011532;28;20387;-81
2021/04/01 06:11:58;;;;;;;27.90;16.33;;;;;;;;;;5009997;28;20386;-81
2021/04/01 06:14:50;;;;;;;22.55;16.02;;;;;;;;;;5011325;28;20390;-81
2021/04/01 06:17:18;;;;;;;23.15;17.13;;;;;;;;;;5009849;28;20923;-81
2021/04/01 06:19:47;;;;;;;22.40;16.75;;;11.20;99.90;;;;;;5011091;28;20429;-82
2021/04/01 06:22:13;;;;;;;22.98;17.23;;;11.30;99.90;;;;;;5007913;28;20399;-81
2021/04/01 06:24:39;;;;;;;27.48;18.83;;;11.50;99.90;;;;;;5009138;28;20433;-82
2021/04/01 06:27:22;;;;;;;21.90;16.03;;;11.60;99.90;;;;;;5008903;28;20385;-82
2021/04/01 06:32:49;;;;;;;27.02;18.17;;;11.70;99.90;;;;;;5010716;28;20378;-82
2021/04/01 06:35:25;;;;;;;27.38;18.58;;;11.80;99.90;;;;;;5009168;28;20784;-82
2021/04/01 06:40:58;;;;;;;24.90;17.20;;;12.00;99.90;;;;;;5010583;28;20378;-82
2021/04/01 06:43:48;;;;;;;24.23;17.52;;;12.20;99.90;;;;;;5010182;28;20403;-82
2021/04/01 06:46:18;;;;;;;21.15;17.25;;;12.40;99.90;;;;;;5009126;28;20371;-82
2021/04/01 06:51:19;;;;;;;27.77;19.55;;;12.40;99.90;;;;;;5010385;28;20737;-81
2021/04/01 06:54:04;;;;;;;26.55;18.23;;;12.50;99.90;;;;;;5010377;28;20419;-82
2021/04/01 06:56:42;;;;;;;28.83;20.08;;;12.60;99.90;;;;;;5010260;28;20378;-81
2021/04/01 06:59:25;;;;;;;24.13;17.58;;;12.60;99.90;;;;;;5008773;28;20726;-81
2021/04/01 07:04:22;;;;;;;26.98;18.58;;;12.80;99.90;;;;;;5010262;28;20381;-81
2021/04/01 07:06:53;;;;;;;24.67;18.10;;;13.00;99.90;;;;;;5008741;28;20470;-81
2021/04/01 07:12:15;;;;;;;26.42;19.30;;;13.20;99.90;;;;;;5010385;28;20377;-82
2021/04/01 07:14:43;;;;;;;31.05;19.77;;;13.30;99.90;;;;;;5010081;28;20457;-82
2021/04/01 07:17:23;;;;;;;28.10;19.77;;;13.40;99.90;;;;;;5010109;28;20375;-81
2021/04/01 07:45:44;;;;;;;28.77;19.90;;;14.40;99.90;;;;;;4980238;28;20381;-82
2021/04/01 07:48:05;;;;;;;28.65;19.73;;;14.70;99.90;;;;;;4989662;28;20432;-82
2021/04/01 07:50:43;;;;;;;29.83;20.57;;;14.90;99.90;;;;;;4988881;28;20380;-82
2021/04/01 07:53:12;;;;;;;34.42;21.65;;;15.00;99.90;;;;;;4990328;28;20451;-82
2021/04/01 08:03:59;;;;;;;28.27;21.13;;;15.10;99.90;;;;;;5004054;28;20392;-83
2021/04/01 08:06:27;;;;;;;34.17;22.23;;;15.40;99.90;;;;;;4997036;28;20453;-82
2021/04/01 08:09:03;;;;;;;32.13;22.58;;;15.70;99.90;;;;;;4994593;28;20390;-83
2021/04/01 08:11:45;;;;;;;31.85;21.85;;;15.80;99.90;;;;;;5177672;23;20795;-82
2021/04/01 08:14:16;;;;;;;30.73;21.73;;;15.80;99.90;;;;;;4991583;28;20540;-83
2021/04/01 08:16:53;;;;;;;39.65;24.13;;;15.70;99.90;;;;;;5003826;28;20457;-82
2021/04/01 08:19:21;;;;;;;38.95;25.17;;;15.60;99.90;;;;;;4994513;28;20434;-83
2021/04/01 08:21:51;;;;;;;36.47;24.83;;;15.40;99.90;;;;;;4998709;28;20438;-82
2021/04/01 08:24:23;;;;;;;33.97;25.13;;;15.40;99.90;;;;;;4995827;28;20835;-82
2021/04/01 08:35:01;;;;;;;36.38;26.40;;;15.20;99.90;;;;;;4995022;28;20401;-83
2021/04/01 08:37:32;;;;;;;36.83;25.80;;;15.00;99.90;;;;;;4998086;28;20916;-83
2021/04/01 08:40:01;;;;;;;36.70;26.50;;;15.10;99.90;;;;;;4998657;28;20392;-83
2021/04/01 08:42:42;;;;;;;37.72;26.60;;;15.10;99.90;;;;;;4998738;28;20556;-82
2021/04/01 08:45:31;;;;;;;59.88;27.52;;;15.20;99.90;;;;;;4997644;28;20407;-83
2021/04/01 08:48:34;;;;;;;37.20;27.55;;;15.30;99.90;;;;;;4997089;28;20545;-82
2021/04/01 08:51:06;;;;;;;42.58;27.02;;;15.10;99.90;;;;;;4998315;28;20401;-83
2021/04/01 08:53:57;;;;;;;39.55;28.88;;;15.20;99.90;;;;;;4999146;28;20413;-83
2021/04/01 09:00:03;;;;;;;37.65;27.90;;;15.70;99.90;;;;;;5214717;23;20479;-82
2021/04/01 09:16:49;;;;;;;38.60;28.77;;;16.20;99.90;;;;;;5011724;28;20391;-81
2021/04/01 10:14:08;;;;;;;51.80;37.07;;;18.90;98.60;;;;;;4987543;28;20400;-82
2021/04/01 10:41:11;;;;;;;47.97;34.50;;;18.40;95.40;;;;;;5002229;28;20493;-82
2021/04/01 11:01:14;;;;;;;60.90;36.13;;;20.20;95.40;;;;;;5006786;28;20983;-82
2021/04/01 11:08:53;;;;;;;51.95;36.95;;;20.60;93.40;;;;;;5309028;22;20489;-77
2021/04/01 11:11:23;;;;;;;55.03;37.60;;;20.20;91.80;;;;;;5020824;28;20752;-77
2021/04/01 11:13:50;;;;;;;52.60;38.00;;;19.90;91.00;;;;;;5021582;28;20377;-76
2021/04/01 11:16:17;;;;;;;54.60;36.15;;;19.80;91.00;;;;;;5023336;28;20396;-76
2021/04/01 11:18:48;;;;;;;56.85;37.67;;;19.50;91.40;;;;;;5020962;28;20402;-76
2021/04/01 11:21:17;;;;;;;54.65;38.85;;;19.40;91.40;;;;;;5023863;28;20397;-77
2021/04/01 11:23:42;;;;;;;55.70;37.65;;;19.40;91.70;;;;;;5022140;28;20479;-77
2021/04/01 11:26:08;;;;;;;57.45;38.40;;;19.30;92.60;;;;;;5021808;28;20406;-78
2021/04/01 11:28:49;;;;;;;53.53;36.55;;;19.30;92.50;;;;;;5023000;28;20396;-77
2021/04/01 11:31:26;;;;;;;54.97;37.45;;;19.30;92.90;;;;;;5024867;28;20397;-77
2021/04/01 11:34:00;;;;;;;54.22;38.63;;;19.40;93.20;;;;;;5022464;28;20459;-78
2021/04/01 11:36:30;;;;;;;53.50;37.33;;;19.50;93.60;;;;;;5024596;28;20388;-78
2021/04/01 11:38:58;;;;;;;56.17;38.33;;;19.50;93.50;;;;;;5024686;28;20471;-79
2021/04/01 11:41:26;;;;;;;61.70;40.58;;;19.60;92.00;;;;;;5026474;28;20401;-78
2021/04/01 11:43:53;;;;;;;63.58;39.60;;;19.80;92.00;;;;;;5024882;28;20405;-80
2021/04/01 11:46:25;;;;;;;63.97;40.10;;;19.80;92.10;;;;;;5021794;28;20401;-78
2021/04/01 11:48:57;;;;;;;59.65;40.72;;;19.90;93.30;;;;;;5021484;28;20385;-79
2021/04/01 11:51:24;;;;;;;64.17;40.87;;;20.00;92.60;;;;;;5024453;28;20389;-83
2021/04/01 11:53:50;;;;;;;61.37;40.50;;;19.90;92.00;;;;;;5025075;28;20385;-78
2021/04/01 11:56:16;;;;;;;60.07;39.63;;;20.00;92.20;;;;;;5024296;28;20499;-78
2021/04/01 11:58:41;;;;;;;57.65;40.50;;;20.00;91.50;;;;;;5023131;28;20984;-77
2021/04/01 12:01:16;;;;;;;71.28;43.72;;;20.10;90.20;;;;;;5025374;28;20547;-77
2021/04/01 12:06:11;;;;;;;66.63;43.70;;;19.40;86.40;;;;;;5025701;28;20463;-78
2021/04/01 12:08:39;;;;;;;63.05;43.50;;;19.50;90.70;;;;;;5030306;28;20393;-78
2021/04/01 12:11:05;;;;;;;64.03;42.40;;;19.30;89.30;;;;;;5029625;28;20984;-78
2021/04/01 12:13:30;;;;;;;57.47;39.23;;;19.30;90.80;;;;;;5030674;28;20424;-77
2021/04/01 12:15:56;;;;;;;60.67;40.08;;;19.30;91.40;;;;;;5030348;28;20377;-77
2021/04/01 12:18:41;;;;;;;57.17;40.10;;;19.00;90.90;;;;;;5018846;28;20421;-77
2021/04/01 12:21:13;;;;;;;71.75;41.60;;;18.60;91.20;;;;;;5028030;28;20397;-78
2021/04/01 12:23:47;;;;;;;60.72;40.25;;;18.60;91.00;;;;;;5027516;28;20401;-77
2021/04/01 12:26:13;;;;;;;62.85;40.58;;;18.60;90.70;;;;;;5029537;28;20432;-77
2021/04/01 12:28:39;;;;;;;63.47;41.15;;;18.50;91.70;;;;;;5031022;28;20413;-77
2021/04/01 12:31:15;;;;;;;58.50;40.05;;;18.30;91.70;;;;;;5024008;28;20865;-78
2021/04/01 12:33:51;;;;;;;55.75;40.17;;;18.30;93.50;;;;;;5031039;28;20398;-82
2021/04/01 12:36:32;;;;;;;58.53;40.22;;;18.10;93.50;;;;;;5029104;28;20385;-78
2021/04/01 12:38:58;;;;;;;56.30;40.92;;;18.00;94.10;;;;;;5029159;28;20393;-77
2021/04/01 12:41:27;;;;;;;57.93;41.17;;;17.70;94.80;;;;;;5016015;28;20753;-77
2021/04/01 12:43:54;;;;;;;56.13;41.93;;;17.30;95.80;;;;;;5013918;28;20991;-77
2021/04/01 12:46:20;;;;;;;57.42;40.60;;;17.20;96.40;;;;;;5017158;28;20513;-77
2021/04/01 12:49:16;;;;;;;58.55;41.95;;;17.30;97.50;;;;;;5018209;28;20433;-80
2021/04/01 12:51:53;;;;;;;58.30;42.42;;;17.60;97.60;;;;;;5025043;28;20397;-78
2021/04/01 12:54:27;;;;;;;57.72;42.60;;;17.70;97.00;;;;;;5026376;28;20389;-79
2021/04/01 12:56:56;;;;;;;61.45;43.05;;;17.70;96.60;;;;;;5029998;28;21142;-78
2021/04/01 12:59:46;;;;;;;60.80;43.30;;;17.80;96.60;;;;;;5027392;28;20439;-79
2021/04/01 13:02:20;;;;;;;59.65;44.30;;;17.70;96.60;;;;;;5021886;28;20903;-79
2021/04/01 13:05:00;;;;;;;63.05;44.33;;;17.50;96.90;;;;;;5025054;28;20748;-83
2021/04/01 13:12:19;;;;;;;62.97;48.20;;;16.90;95.80;;;;;;5022158;28;20399;-79
2021/04/01 13:14:46;;;;;;;63.45;48.65;;;16.80;97.20;;;;;;5024270;28;20389;-79
2021/04/01 13:17:12;;;;;;;64.32;47.85;;;16.80;98.00;;;;;;5024508;28;20396;-79
2021/04/01 13:19:38;;;;;;;67.13;48.73;;;16.80;96.30;;;;;;5024630;28;20385;-79
2021/04/01 13:22:08;;;;;;;67.47;49.87;;;16.80;96.90;;;;;;5023971;28;20790;-79
2021/04/01 13:27:03;;;;;;;72.88;48.30;;;17.00;95.60;;;;;;5023885;28;20393;-79
2021/04/01 13:29:31;;;;;;;69.77;49.97;;;17.10;92.50;;;;;;5017439;28;20464;-79
2021/04/01 13:32:01;;;;;;;72.32;49.60;;;17.10;94.00;;;;;;5022984;28;20413;-78
2021/04/01 13:34:36;;;;;;;69.63;50.85;;;17.10;94.20;;;;;;5023646;28;20421;-79
2021/04/01 13:37:15;;;;;;;73.70;53.45;;;17.20;95.30;;;;;;5014537;28;20396;-79
2021/04/01 13:39:46;;;;;;;72.87;52.90;;;17.10;96.00;;;;;;5025046;28;20858;-79
2021/04/01 13:42:17;;;;;;;68.90;49.23;;;17.00;95.90;;;;;;5017499;28;20925;-79
2021/04/01 13:47:10;;;;;;;70.60;50.83;;;16.40;95.50;;;;;;5020468;28;20382;-78
2021/04/01 13:49:38;;;;;;;80.38;53.00;;;16.40;96.10;;;;;;5018777;28;20401;-79
2021/04/01 13:54:49;;;;;;;68.47;50.20;;;16.50;96.30;;;;;;5021454;28;20405;-78
2021/04/01 14:00:24;;;;;;;69.63;50.22;;;16.70;96.10;;;;;;5000712;28;20401;-78
2021/04/01 14:11:17;;;;;;;71.65;53.22;;;16.70;97.90;;;;;;5012306;28;20755;-78
2021/04/01 14:13:44;;;;;;;70.72;52.78;;;16.50;98.00;;;;;;5025702;28;20377;-78
2021/04/01 14:16:11;;;;;;;59.90;43.70;;;16.50;99.70;;;;;;5027888;28;20924;-78
2021/04/01 14:18:37;;;;;;;52.53;42.10;;;16.10;99.90;;;;;;5026612;28;20484;-78
2021/04/01 14:21:05;;;;;;;51.22;38.35;;;15.70;99.90;;;;;;5024509;28;20381;-78
2021/04/01 14:23:35;;;;;;;47.25;35.30;;;15.10;99.90;;;;;;5027802;28;20412;-78
2021/04/01 14:26:06;;;;;;;44.88;34.60;;;15.10;99.90;;;;;;5024068;28;20395;-78
2021/04/01 14:28:32;;;;;;;40.88;30.60;;;14.70;99.90;;;;;;5027017;28;20512;-78
2021/04/01 14:30:58;;;;;;;39.13;28.33;;;14.50;99.90;;;;;;5027275;28;20390;-77
2021/04/01 14:33:25;;;;;;;37.85;28.75;;;14.40;99.90;;;;;;5027779;28;20401;-77
2021/04/01 14:35:52;;;;;;;35.75;27.00;;;14.40;99.90;;;;;;5022196;28;20454;-78
2021/04/01 14:38:20;;;;;;;32.97;23.73;;;14.30;99.90;;;;;;5025912;28;20890;-78
2021/04/01 14:40:51;;;;;;;28.45;22.05;;;14.20;99.90;;;;;;5025381;28;20981;-78
2021/04/01 14:43:37;;;;;;;30.77;21.48;;;14.10;99.90;;;;;;5022780;28;20417;-78
2021/04/01 14:46:04;;;;;;;24.02;18.90;;;14.20;99.90;;;;;;5025489;28;20393;-78
2021/04/01 14:48:30;;;;;;;26.42;17.85;;;14.30;99.90;;;;;;5022627;28;20423;-80
2021/04/01 14:50:57;;;;;;;22.85;17.88;;;14.20;99.90;;;;;;5024048;28;20516;-77
2021/04/01 14:53:40;;;;;;;28.88;17.50;;;14.00;99.90;;;;;;5027473;28;20488;-78
2021/04/01 14:56:07;;;;;;;21.13;16.87;;;14.00;99.90;;;;;;5021650;28;20401;-78
2021/04/01 14:58:37;;;;;;;20.50;16.00;;;13.80;99.90;;;;;;5025170;28;20435;-80
2021/04/01 15:01:04;;;;;;;18.50;15.25;;;13.80;99.90;;;;;;5024791;28;20386;-80
2021/04/01 15:03:30;;;;;;;20.50;14.35;;;13.70;99.90;;;;;;5023041;28;20914;-79
2021/04/01 15:05:56;;;;;;;16.38;13.90;;;13.60;99.90;;;;;;5025136;28;20871;-80
2021/04/01 15:08:22;;;;;;;18.92;13.55;;;13.30;99.90;;;;;;5025936;28;20393;-80
2021/04/01 15:10:48;;;;;;;17.93;14.00;;;13.10;99.90;;;;;;5019847;28;20417;-80
2021/04/01 15:13:14;;;;;;;18.20;14.68;;;;;;;;;;5022245;28;20407;-79
2021/04/01 15:15:41;;;;;;;21.35;15.70;;;;;;;;;;5023242;28;20389;-78
2021/04/01 15:18:10;;;;;;;20.52;16.10;;;;;;;;;;5019786;28;20474;-79
2021/04/01 15:20:36;;;;;;;19.17;16.00;;;;;;;;;;5018829;28;20484;-79
2021/04/01 15:23:02;;;;;;;19.42;15.90;;;;;;;;;;5024194;28;20444;-78
2021/04/01 15:25:28;;;;;;;21.55;15.77;;;;;;;;;;5017517;28;20390;-79
2021/04/01 15:27:57;;;;;;;22.38;16.33;;;;;;;;;;5019212;28;20919;-79
2021/04/01 15:30:23;;;;;;;21.27;16.73;;;;;;;;;;5011263;28;20952;-80
2021/04/01 15:32:49;;;;;;;25.92;16.77;;;;;;;;;;5030321;28;20373;-80
2021/04/01 15:35:15;;;;;;;20.80;16.10;;;;;;;;;;5020953;28;20867;-79
2021/04/01 15:37:41;;;;;;;19.40;15.77;;;;;;;;;;5019559;28;20465;-79
2021/04/01 15:40:08;;;;;;;20.40;16.08;;;;;;;;;;5026399;28;20435;-79
2021/04/01 15:42:35;;;;;;;21.10;15.90;;;;;;;;;;5026922;28;20408;-79
2021/04/01 15:45:01;;;;;;;20.42;15.07;;;;;;;;;;5024205;28;20953;-79
2021/04/01 15:47:28;;;;;;;18.95;15.10;;;;;;;;;;5030568;28;20740;-79
2021/04/01 15:49:55;;;;;;;21.55;15.55;;;;;;;;;;5019594;28;20382;-78
2021/04/01 15:52:21;;;;;;;18.00;15.00;;;;;;;;;;5025103;28;20393;-79
2021/04/01 15:54:47;;;;;;;16.95;14.45;;;;;;;;;;5029890;28;20377;-78
2021/04/01 15:57:13;;;;;;;17.55;13.60;;;;;;;;;;5031261;28;21203;-79
2021/04/01 15:59:39;;;;;;;15.70;12.82;;;;;;;;;;5032000;28;20464;-79
2021/04/01 16:02:05;;;;;;;13.48;11.02;;;;;;;;;;5028411;28;20410;-79
2021/04/01 16:04:32;;;;;;;12.93;10.60;;;;;;;;;;5032085;28;20420;-80
2021/04/01 16:06:59;;;;;;;12.30;10.15;;;;;;;;;;5030075;28;20435;-80
2021/04/01 16:09:25;;;;;;;11.57;10.18;;;;;;;;;;5022487;28;20453;-79
2021/04/01 16:11:51;;;;;;;9.88;8.60;;;;;;;;;;5023750;28;20746;-78
2021/04/01 16:14:18;;;;;;;9.10;7.17;;;;;;;;;;5026198;28;20706;-79
2021/04/01 16:16:44;;;;;;;7.57;6.75;;;;;;;;;;5030315;28;20405;-79
2021/04/01 16:19:12;;;;;;;7.68;6.63;;;;;;;;;;5030390;28;20390;-81
2021/04/01 16:21:38;;;;;;;7.40;6.20;;;;;;;;;;5020529;28;20442;-79
2021/04/01 16:24:06;;;;;;;7.18;5.60;;;;;;;;;;5020762;28;20417;-79
2021/04/01 16:26:32;;;;;;;7.45;5.90;;;;;;;;;;5022497;28;21106;-79
2021/04/01 16:28:59;;;;;;;7.80;5.50;;;;;;;;;;5026171;28;20393;-82
2021/04/01 16:31:29;;;;;;;6.18;5.57;;;;;;;;;;5031283;28;20378;-78
2021/04/01 16:33:56;;;;;;;6.57;5.63;;;;;;;;;;5019397;28;20418;-79
2021/04/01 16:36:26;;;;;;;7.95;5.20;;;;;;;;;;5011586;28;20371;-79
2021/04/01 16:38:53;;;;;;;6.85;5.15;;;;;;;;;;5024501;28;20830;-79
2021/04/01 16:41:21;;;;;;;5.97;5.13;;;;;;;;;;5028965;28;20858;-79
2021/04/01 16:43:48;;;;;;;8.03;5.60;;;10.30;99.90;;;;;;5029815;28;20909;-78
2021/04/01 16:46:14;;;;;;;8.52;4.97;;;10.30;99.90;;;;;;5030806;28;20393;-78
2021/04/01 16:48:40;;;;;;;5.80;4.47;;;10.20;99.90;;;;;;5030147;28;20408;-78
2021/04/01 16:51:06;;;;;;;6.40;5.07;;;10.20;99.90;;;;;;5025813;28;20413;-81
2021/04/01 16:53:53;;;;;;;7.27;5.00;;;10.20;99.90;;;;;;5027249;28;20382;-78
2021/04/01 16:56:20;;;;;;;6.65;5.10;;;10.30;99.90;;;;;;5029508;28;20389;-78
2021/04/01 16:58:47;;;;;;;7.97;5.22;;;10.30;99.90;;;;;;5021553;28;20391;-79
2021/04/01 17:01:13;;;;;;;10.70;5.78;;;10.10;99.90;;;;;;5010884;28;20385;-78
2021/04/01 17:03:39;;;;;;;7.80;5.88;;;10.00;99.90;;;;;;5008661;28;20408;-78
2021/04/01 17:06:05;;;;;;;8.10;5.75;;;9.80;99.90;;;;;;5016801;28;20422;-79
2021/04/01 17:08:31;;;;;;;9.40;6.07;;;9.70;99.90;;;;;;5017147;28;20549;-78
2021/04/01 17:10:58;;;;;;;8.10;5.68;;;9.70;99.90;;;;;;5017763;28;20389;-79
2021/04/01 17:13:25;;;;;;;8.20;6.38;;;9.60;99.90;;;;;;5027580;28;20944;-78
2021/04/01 17:15:51;;;;;;;10.85;6.07;;;9.60;99.90;;;;;;5025781;28;20769;-79